sensor_id;sensor_type;location;lat;lon;timestamp;pressure;altitude;pressure_sealevel;temperature;humidity
71956;BME280;59829;50.562;6.258;2023-05-11T00:15:40;95548.19;;;11.14;100.00
71956;BME280;59829;50.562;6.258;2023-05-11T00:45:40;95550.13;;;11.32;100.00
71956;BME280;59829;50.562;6.258;2023-05-11T01:15:46;95555.34;;;11.21;100.00
71956;BME280;59829;50.562;6.258;2023-05-11T01:45:50;95555.84;;;10.95;100.00
71956;BME280;59829;50.562;6.258;2023-05-11T02:15:54;95560.72;;;10.68;100.00
71956;BME280;59829;50.562;6.258;2023-05-11T02:46:01;95558.00;;;10.60;100.00
71956;BME280;59829;50.562;6.258;2023-05-11T03:16:02;95542.88;;;10.56;100.00
71956;BME280;59829;50.562;6.258;2023-05-11T03:46:03;95544.50;;;10.57;100.00
71956;BME280;59829;50.562;6.258;2023-05-11T04:16:05;95547.53;;;10.72;100.00
71956;BME280;59829;50.562;6.258;2023-05-11T04:46:05;95552.63;;;10.63;100.00
71956;BME280;59829;50.562;6.258;2023-05-11T05:16:06;95575.34;;;10.77;100.00
71956;BME280;59829;50.562;6.258;2023-05-11T05:46:06;95588.81;;;11.19;100.00
71956;BME280;59829;50.562;6.258;2023-05-11T06:16:06;95610.09;;;11.50;100.00
71956;BME280;59829;50.562;6.258;2023-05-11T06:46:07;95612.25;;;11.64;100.00
71956;BME280;59829;50.562;6.258;2023-05-11T07:16:07;95623.25;;;11.86;100.00
71956;BME280;59829;50.562;6.258;2023-05-11T07:46:07;95625.94;;;11.94;100.00
71956;BME280;59829;50.562;6.258;2023-05-11T08:16:08;95625.69;;;12.06;100.00
71956;BME280;59829;50.562;6.258;2023-05-11T08:46:10;95645.97;;;12.19;100.00
71956;BME280;59829;50.562;6.258;2023-05-11T09:16:10;95646.09;;;12.18;100.00
71956;BME280;59829;50.562;6.258;2023-05-11T09:46:20;95658.22;;;12.45;100.00
71956;BME280;59829;50.562;6.258;2023-05-11T10:16:21;95640.50;;;12.51;100.00
71956;BME280;59829;50.562;6.258;2023-05-11T11:47:21;95641.44;;;12.60;100.00
71956;BME280;59829;50.562;6.258;2023-05-11T12:17:26;95625.66;;;12.92;100.00
71956;BME280;59829;50.562;6.258;2023-05-11T12:47:28;95615.06;;;13.60;100.00
71956;BME280;59829;50.562;6.258;2023-05-11T13:17:33;95601.63;;;13.83;100.00
71956;BME280;59829;50.562;6.258;2023-05-11T13:47:34;95587.13;;;14.00;100.00
71956;BME280;59829;50.562;6.258;2023-05-11T14:17:36;95581.09;;;14.09;98.98
71956;BME280;59829;50.562;6.258;2023-05-11T14:47:36;95570.91;;;14.26;96.59
71956;BME280;59829;50.562;6.258;2023-05-11T15:17:37;95570.59;;;14.29;93.94
71956;BME280;59829;50.562;6.258;2023-05-11T15:47:37;95579.59;;;14.25;92.65
71956;BME280;59829;50.562;6.258;2023-05-11T16:17:37;95574.59;;;14.05;91.60
71956;BME280;59829;50.562;6.258;2023-05-11T16:47:38;95569.03;;;13.92;92.13
71956;BME280;59829;50.562;6.258;2023-05-11T17:17:38;95573.22;;;13.93;92.99
71956;BME280;59829;50.562;6.258;2023-05-11T17:47:38;95593.69;;;13.77;93.14
71956;BME280;59829;50.562;6.258;2023-05-11T18:17:42;95591.97;;;13.68;94.00
71956;BME280;59829;50.562;6.258;2023-05-11T18:47:42;95606.06;;;13.46;95.28
71956;BME280;59829;50.562;6.258;2023-05-11T19:17:45;95629.28;;;13.36;97.23
71956;BME280;59829;50.562;6.258;2023-05-11T19:47:45;95662.19;;;12.95;98.75
71956;BME280;59829;50.562;6.258;2023-05-11T20:17:45;95671.72;;;12.66;100.00
71956;BME280;59829;50.562;6.258;2023-05-11T20:47:46;95659.31;;;12.52;100.00
71956;BME280;59829;50.562;6.258;2023-05-11T21:17:46;95652.16;;;12.36;100.00
71956;BME280;59829;50.562;6.258;2023-05-11T21:47:46;95656.63;;;12.34;100.00
71956;BME280;59829;50.562;6.258;2023-05-11T22:17:47;95633.91;;;12.29;100.00
71956;BME280;59829;50.562;6.258;2023-05-11T22:47:48;95638.25;;;12.19;100.00
71956;BME280;59829;50.562;6.258;2023-05-11T23:17:48;95625.94;;;12.13;100.00
71956;BME280;59829;50.562;6.258;2023-05-11T23:47:48;95618.25;;;12.03;100.00
